Time;durP1;ratioP1;P1;durP2;ratioP2;P2;SDS_P1;SDS_P2;PMS_P1;PMS_P2;Temp;Humidity;BMP_temperature;BMP_pressure;BME280_temperature;BME280_humidity;BME280_pressure;Samples;Min_cycle;Max_cycle;Signal;HPM_P1;HPM_P2
2023/05/25 00:00:32;;;;;;;4.28;1.38;;;;;;;;;;5054280;28;20032;-54
2023/05/25 00:02:59;;;;;;;3.22;2.13;;;;;;;;;;5053814;28;20025;-56
2023/05/25 00:05:26;;;;;;;6.55;2.13;;;;;;;;;;5053625;28;20033;-54
2023/05/25 00:07:53;;;;;;;2.90;1.88;;;;;;;;;;5053943;28;20041;-56
2023/05/25 00:10:20;;;;;;;3.60;2.17;;;;;;;;;;5053914;28;20436;-57
2023/05/25 00:12:46;;;;;;;5.40;2.13;;;;;;;;;;5053565;28;20067;-54
2023/05/25 00:15:12;;;;;;;5.43;1.77;;;;;;;;;;5053742;28;20479;-57
2023/05/25 00:17:39;;;;;;;6.07;2.42;;;;;;;;;;5053925;28;20037;-57
2023/05/25 00:20:08;;;;;;;3.70;1.98;;;;;;;;;;5053562;28;20124;-57
2023/05/25 00:22:37;;;;;;;3.28;2.03;;;;;;;;;;5053810;28;20021;-56
2023/05/25 00:25:05;;;;;;;7.45;2.65;;;;;;;;;;5053703;28;20025;-56
2023/05/25 00:27:31;;;;;;;5.78;2.15;;;;;;;;;;5053543;28;20021;-57
2023/05/25 00:29:57;;;;;;;3.65;1.60;;;;;;;;;;5053255;28;20033;-56
2023/05/25 00:32:23;;;;;;;4.88;1.63;;;;;;;;;;5054046;28;20112;-57
2023/05/25 00:34:49;;;;;;;6.22;2.20;;;;;;;;;;5053471;28;20112;-57
2023/05/25 00:37:15;;;;;;;3.33;1.85;;;;;;;;;;5053805;28;20443;-57
2023/05/25 00:39:41;;;;;;;3.70;1.85;;;;;;;;;;5056735;28;20451;-57
2023/05/25 00:42:07;;;;;;;4.13;2.20;;;;;;;;;;5057132;28;20040;-54
2023/05/25 00:44:33;;;;;;;3.70;2.03;;;;;;;;;;5057273;28;20025;-54
2023/05/25 00:47:03;;;;;;;3.65;1.77;;;;;;;;;;5057143;28;20108;-57
2023/05/25 00:49:30;;;;;;;3.20;1.48;;;;;;;;;;5057752;28;20040;-57
2023/05/25 00:51:57;;;;;;;6.57;2.30;;;;;;;;;;5058085;28;20033;-58
2023/05/25 00:54:23;;;;;;;6.55;2.28;;;;;;;;;;5057220;28;20037;-56
2023/05/25 00:56:55;;;;;;;2.70;1.90;;;;;;;;;;5057104;28;20025;-55
2023/05/25 00:59:30;;;;;;;4.93;2.25;;;;;;;;;;5057004;28;20075;-54
2023/05/25 01:01:57;;;;;;;3.92;2.08;;;;;;;;;;5057328;28;20029;-54
2023/05/25 01:04:23;;;;;;;6.70;2.45;;;;;;;;;;5057266;28;20102;-55
2023/05/25 01:06:51;;;;;;;3.80;2.22;;;;;;;;;;5057487;28;20044;-55
2023/05/25 01:09:19;;;;;;;3.28;1.60;;;;;;;;;;5056840;28;20040;-52
2023/05/25 01:11:48;;;;;;;4.25;1.88;;;;;;;;;;5056838;28;20031;-56
2023/05/25 01:14:16;;;;;;;4.88;1.90;;;;;;;;;;5056522;28;20060;-53
2023/05/25 01:16:42;;;;;;;5.82;2.72;;;;;;;;;;5057265;28;20028;-53
2023/05/25 01:19:09;;;;;;;5.38;1.80;;;;;;;;;;5056756;28;20025;-54
2023/05/25 01:22:05;;;;;;;5.40;2.13;;;;;;;;;;5057433;28;20040;-52
2023/05/25 01:24:39;;;;;;;2.88;1.73;;;;;;;;;;5051808;28;20128;-59
2023/05/25 01:27:13;;;;;;;7.57;2.25;;;;;;;;;;5057117;28;20036;-56
2023/05/25 01:29:42;;;;;;;5.13;2.55;;;;;;;;;;5057083;28;20029;-55
2023/05/25 01:32:08;;;;;;;3.92;2.10;;;;;;;;;;5056458;28;20464;-55
2023/05/25 01:34:35;;;;;;;7.47;2.25;;;;;;;;;;5057198;28;20029;-54
2023/05/25 01:37:01;;;;;;;3.47;1.85;;;;;;;;;;5056443;28;20024;-56
2023/05/25 01:39:27;;;;;;;5.15;1.83;;;;;;;;;;5056352;28;20056;-54
2023/05/25 01:41:53;;;;;;;4.15;1.50;;;;;;;;;;5056263;28;20064;-54
2023/05/25 01:44:20;;;;;;;6.53;2.17;;;;;;;;;;5056948;28;20028;-54
2023/05/25 01:46:50;;;;;;;3.28;2.08;;;;;;;;;;5056750;28;20029;-56
2023/05/25 01:49:20;;;;;;;4.15;2.10;;;;;;;;;;5055603;28;20025;-56
2023/05/25 01:52:11;;;;;;;6.82;1.98;;;;;;;;;;5056378;28;20028;-55
2023/05/25 01:54:44;;;;;;;3.08;1.98;;;;;;;;;;5056160;28;20086;-56
2023/05/25 01:57:12;;;;;;;6.82;2.60;;;;;;;;;;5056322;28;20033;-55
2023/05/25 01:59:38;;;;;;;5.05;2.65;;;;;;;;;;5056175;28;20463;-54
2023/05/25 02:02:05;;;;;;;3.47;2.00;;;;;;;;;;5055958;28;20359;-52
2023/05/25 02:04:32;;;;;;;3.83;2.50;;;;;;;;;;5055794;28;20025;-55
2023/05/25 02:06:58;;;;;;;4.28;2.22;;;;;;;;;;5056166;28;20348;-56
2023/05/25 02:09:24;;;;;;;5.32;1.80;;;;;;;;;;5055772;28;20032;-55
2023/05/25 02:11:50;;;;;;;5.65;2.70;;;;;;;;;;5056308;28;20033;-55
2023/05/25 02:14:16;;;;;;;3.38;1.77;;;;;;;;;;5055659;28;20383;-54
2023/05/25 02:16:44;;;;;;;4.60;2.15;;;;;;;;;;5055609;28;20076;-52
2023/05/25 02:19:11;;;;;;;4.57;2.95;;;;;;;;;;5055567;28;20099;-56
2023/05/25 02:21:37;;;;;;;3.60;2.38;;;;;;;;;;5056317;28;20067;-55
2023/05/25 02:24:03;;;;;;;5.55;2.35;;;;;;;;;;5055478;28;20072;-53
2023/05/25 02:26:29;;;;;;;7.15;3.00;;;;;;;;;;5055786;28;20024;-56
2023/05/25 02:28:55;;;;;;;4.15;2.17;;;;;;;;;;5055409;28;20116;-54
2023/05/25 02:31:21;;;;;;;5.10;2.95;;;;;;;;;;5055441;28;20128;-55
2023/05/25 02:33:47;;;;;;;4.80;2.25;;;;;;;;;;5055834;28;20074;-52
2023/05/25 02:36:13;;;;;;;4.93;2.50;;;;;;;;;;5055595;28;20410;-55
2023/05/25 02:38:39;;;;;;;3.72;2.47;;;;;;;;;;5056036;28;20075;-52
2023/05/25 02:41:05;;;;;;;5.57;2.50;;;;;;;;;;5055684;28;20053;-53
2023/05/25 02:43:31;;;;;;;6.32;2.55;;;;;;;;;;5055410;28;20029;-55
2023/05/25 02:45:57;;;;;;;4.93;2.97;;;;;;;;;;5055993;28;20053;-54
2023/05/25 02:48:23;;;;;;;5.32;2.88;;;;;;;;;;5055042;28;20434;-55
2023/05/25 02:50:49;;;;;;;9.52;3.03;;;;;;;;;;5054993;28;20370;-56
2023/05/25 02:53:15;;;;;;;5.70;2.50;;;;;;;;;;5054923;28;20359;-55
2023/05/25 02:55:42;;;;;;;5.10;2.75;;;;;;;;;;5054939;28;20056;-56
2023/05/25 02:58:08;;;;;;;7.95;2.60;;;;;;;;;;5054675;28;20024;-56
2023/05/25 03:00:34;;;;;;;11.75;3.28;;;;;;;;;;5054003;28;20036;-55
2023/05/25 03:03:00;;;;;;;6.22;3.00;;;;;;;;;;5054668;28;20060;-55
2023/05/25 03:05:26;;;;;;;6.80;3.63;;;;;;;;;;5055212;28;20114;-55
2023/05/25 03:07:53;;;;;;;6.05;2.83;;;;;;;;;;5055234;28;20498;-55
2023/05/25 03:10:19;;;;;;;3.10;2.38;;;;;;;;;;5054889;28;20040;-56
2023/05/25 03:12:45;;;;;;;4.80;2.80;;;;;;;;;;5054569;28;20029;-55
2023/05/25 03:15:12;;;;;;;7.30;2.80;;;;;;;;;;5054775;28;20131;-56
2023/05/25 03:17:38;;;;;;;6.03;2.40;;;;;;;;;;5054433;28;20380;-54
2023/05/25 03:20:05;;;;;;;3.90;2.42;;;;;;;;;;5054506;28;20017;-53
2023/05/25 03:22:31;;;;;;;3.97;2.72;;;;;;;;;;5054435;28;20021;-55
2023/05/25 03:24:58;;;;;;;7.90;3.13;;;;;;;;;;5054570;28;20037;-54
2023/05/25 03:27:24;;;;;;;5.03;2.63;;;;;;;;;;5054354;28;20032;-55
2023/05/25 03:29:51;;;;;;;8.35;2.50;;;;;;;;;;5054175;28;20051;-56
2023/05/25 03:32:16;;;;;;;4.88;2.70;;;;;;;;;;5054321;28;20037;-54
2023/05/25 03:34:43;;;;;;;5.72;2.78;;;;;;;;;;5054258;28;20120;-54
2023/05/25 03:37:09;;;;;;;3.80;2.45;;;;;;;;;;5054347;28;20508;-55
2023/05/25 03:39:35;;;;;;;5.93;2.60;;;;;;;;;;5054678;28;20058;-51
2023/05/25 03:42:02;;;;;;;6.10;3.75;;;;;;;;;;5054156;28;20029;-55
2023/05/25 03:44:28;;;;;;;6.47;2.97;;;;;;;;;;5053895;28;20029;-53
2023/05/25 03:46:54;;;;;;;5.93;3.15;;;;;;;;;;5054251;28;20029;-53
2023/05/25 03:49:20;;;;;;;6.10;2.78;;;;;;;;;;5054004;28;20035;-55
2023/05/25 03:51:46;;;;;;;8.00;3.45;;;;;;;;;;5054014;28;20108;-55
2023/05/25 03:54:12;;;;;;;5.00;2.80;;;;;;;;;;5054446;28;20028;-55
2023/05/25 03:56:38;;;;;;;5.15;3.20;;;;;;;;;;5054102;28;20439;-56
2023/05/25 03:59:04;;;;;;;5.45;3.40;;;;;;;;;;5053871;28;20036;-55
2023/05/25 04:01:30;;;;;;;5.35;3.35;;;;;;;;;;5054071;28;20086;-54
2023/05/25 04:03:56;;;;;;;7.07;3.33;;;;;;;;;;5053808;28;20033;-54
2023/05/25 04:06:24;;;;;;;6.65;3.35;;;;;;;;;;5053877;28;20451;-56
2023/05/25 04:08:50;;;;;;;5.50;3.38;;;;;;;;;;5053713;28;20083;-51
2023/05/25 04:11:17;;;;;;;9.45;3.20;;;;;;;;;;5052601;28;20041;-56
2023/05/25 04:13:43;;;;;;;5.68;2.95;;;;;;;;;;5053741;28;20053;-57
2023/05/25 04:16:11;;;;;;;7.28;3.00;;;;;;;;;;5053808;28;20355;-56
2023/05/25 04:18:37;;;;;;;7.28;3.53;;;;;;;;;;5053587;28;20035;-57
2023/05/25 04:21:03;;;;;;;7.20;2.97;;;;;;;;;;5053634;28;20111;-57
2023/05/25 04:23:29;;;;;;;5.35;3.20;;;;;;;;;;5053491;28;20090;-55
2023/05/25 04:25:56;;;;;;;5.60;3.13;;;;;;;;;;5054162;28;20386;-54
2023/05/25 04:28:22;;;;;;;5.80;3.22;;;;;;;;;;5053544;28;20025;-55
2023/05/25 04:30:48;;;;;;;6.28;3.03;;;;;;;;;;5053554;28;20422;-54
2023/05/25 04:33:14;;;;;;;6.72;3.60;;;;;;;;;;5053556;28;20025;-56
2023/05/25 04:35:40;;;;;;;13.98;3.45;;;;;;;;;;5053246;28;20032;-56
2023/05/25 04:38:06;;;;;;;4.97;2.50;;;;;;;;;;5053685;28;20104;-56
2023/05/25 04:40:32;;;;;;;6.45;3.00;;;;;;;;;;5053406;28;20127;-56
2023/05/25 04:42:58;;;;;;;6.45;3.45;;;;;;;;;;5053695;28;20021;-56
2023/05/25 04:45:24;;;;;;;5.60;3.58;;;;;;;;;;5053746;28;20033;-53
2023/05/25 04:47:51;;;;;;;8.20;2.95;;;;;;;;;;5053828;28;20021;-54
2023/05/25 04:50:17;;;;;;;4.55;3.20;;;;;;;;;;5053210;28;20122;-56
2023/05/25 04:52:43;;;;;;;8.88;3.17;;;;;;;;;;5053047;28;20491;-55
2023/05/25 04:55:09;;;;;;;5.10;3.28;;;;;;;;;;5053318;28;20116;-56
2023/05/25 04:57:35;;;;;;;6.00;3.40;;;;;;;;;;5053296;28;20047;-56
2023/05/25 05:00:01;;;;;;;4.38;3.03;;;;;;;;;;5053453;28;20519;-55
2023/05/25 05:02:27;;;;;;;4.22;3.20;;;;;;;;;;5053243;28;20033;-55
2023/05/25 05:04:53;;;;;;;8.02;3.75;;;;;;;;;;5053141;28;20039;-54
2023/05/25 05:07:22;;;;;;;5.68;3.25;;;;;;;;;;5053284;28;20029;-54
2023/05/25 05:09:48;;;;;;;7.80;2.85;;;;;;;;;;5053520;28;20067;-50
2023/05/25 05:12:14;;;;;;;6.97;3.20;;;;;;;;;;5053100;28;20027;-56
2023/05/25 05:14:40;;;;;;;5.38;2.92;;;;;;;;;;5052686;28;20119;-56
2023/05/25 05:17:06;;;;;;;6.35;2.80;;;;;;;;;;5053521;28;20070;-55
2023/05/25 05:19:32;;;;;;;5.07;3.13;;;;;;;;;;5053034;28;20036;-51
2023/05/25 05:21:59;;;;;;;4.70;3.33;;;;;;;;;;5053531;28;20025;-55
2023/05/25 05:24:25;;;;;;;5.68;3.67;;;;;;;;;;5055064;28;20379;-54
2023/05/25 05:26:51;;;;;;;4.55;3.10;;;;;;;;;;5057186;28;20025;-56
2023/05/25 05:29:18;;;;;;;6.35;3.20;;;;;;;;;;5056622;28;20112;-55
2023/05/25 05:31:44;;;;;;;6.57;3.15;;;;;;;;;;5056337;28;20462;-54
2023/05/25 05:34:10;;;;;;;4.43;3.05;;;;;;;;;;5056917;28;20112;-55
2023/05/25 05:36:37;;;;;;;10.20;3.97;;;;;;;;;;5057047;28;20052;-55
2023/05/25 05:39:03;;;;;;;6.07;3.60;;;;;;;;;;5056501;28;20028;-55
2023/05/25 05:41:29;;;;;;;3.90;3.15;;;;;;;;;;5056398;28;20033;-56
2023/05/25 05:43:55;;;;;;;7.30;3.15;;;;;;;;;;5056168;28;20033;-56
2023/05/25 05:46:21;;;;;;;8.73;3.63;;;;;;;;;;5056647;28;20082;-57
2023/05/25 05:48:47;;;;;;;7.88;3.70;;;;;;;;;;5056361;28;20483;-56
2023/05/25 05:51:13;;;;;;;5.80;3.70;;;;;;;;;;5056804;28;20092;-57
2023/05/25 05:53:39;;;;;;;5.05;3.15;;;;;;;;;;5056082;28;20021;-54
2023/05/25 05:56:05;;;;;;;6.35;4.05;;;;;;;;;;5056211;28;20127;-54
2023/05/25 05:58:31;;;;;;;7.25;3.78;;;;;;;;;;5055973;28;20029;-54
2023/05/25 06:00:58;;;;;;;9.02;3.30;;;;;;;;;;5055805;28;20040;-56
2023/05/25 06:03:26;;;;;;;4.57;3.25;;;;;;;;;;5056055;28;20032;-55
2023/05/25 06:05:52;;;;;;;5.30;3.35;;;;;;;;;;5055378;28;20029;-56
2023/05/25 06:08:18;;;;;;;9.73;4.22;;;;;;;;;;5056101;28;20032;-56
2023/05/25 06:10:44;;;;;;;5.50;3.60;;;;;;;;;;5055937;28;20029;-56
2023/05/25 06:13:10;;;;;;;5.15;3.75;;;;;;;;;;5055701;28;20032;-54
2023/05/25 06:15:36;;;;;;;6.82;3.95;;;;;;;;;;5056202;28;20053;-56
2023/05/25 06:18:02;;;;;;;8.07;3.53;;;;;;;;;;5055662;28;20025;-56
2023/05/25 06:20:28;;;;;;;7.32;4.68;;;;;;;;;;5055686;28;20039;-56
2023/05/25 06:22:54;;;;;;;6.32;3.45;;;;;;;;;;5056041;28;20072;-55
2023/05/25 06:25:20;;;;;;;9.02;3.22;;;;;;;;;;5055532;28;20436;-55
2023/05/25 06:27:46;;;;;;;4.78;3.75;;;;;;;;;;5055550;28;20091;-57
2023/05/25 06:30:12;;;;;;;5.40;3.85;;;;;;;;;;5055986;28;20024;-56
2023/05/25 06:32:38;;;;;;;5.95;3.63;;;;;;;;;;5055501;28;20025;-56
2023/05/25 06:35:04;;;;;;;7.40;4.28;;;;;;;;;;5055316;28;20032;-57
2023/05/25 06:37:36;;;;;;;9.48;4.72;;;;;;;;;;5055864;28;20086;-56
2023/05/25 06:40:03;;;;;;;7.13;4.03;;;;;;;;;;5055345;28;20025;-56
2023/05/25 06:42:29;;;;;;;10.07;4.82;;;;;;;;;;5055708;28;20044;-57
2023/05/25 06:44:55;;;;;;;10.80;4.25;;;;;;;;;;5055589;28;20033;-57
2023/05/25 06:47:21;;;;;;;5.93;3.83;;;;;;;;;;5055341;28;20032;-56
2023/05/25 06:49:47;;;;;;;14.18;3.58;;;;;;;;;;5055307;28;20040;-57
2023/05/25 06:52:13;;;;;;;7.05;3.78;;;;;;;;;;5055099;28;20025;-56
2023/05/25 06:54:39;;;;;;;6.85;4.63;;;;;;;;;;5055199;28;20025;-56
2023/05/25 06:57:05;;;;;;;4.85;3.80;;;;;;;;;;5055112;28;20052;-57
2023/05/25 06:59:31;;;;;;;6.53;3.63;;;;;;;;;;5055082;28;20056;-56
2023/05/25 07:01:57;;;;;;;11.35;4.38;;;;;;;;;;5055293;28;20051;-57
2023/05/25 07:04:23;;;;;;;4.38;3.03;;;;;;;;;;5054677;28;20025;-53
2023/05/25 07:06:50;;;;;;;6.75;4.28;;;;;;;;;;5055533;28;20375;-55
2023/05/25 07:09:16;;;;;;;5.95;4.15;;;;;;;;;;5054676;28;20033;-55
2023/05/25 07:11:42;;;;;;;6.00;3.55;;;;;;;;;;5054834;28;20087;-56
2023/05/25 07:14:08;;;;;;;5.80;3.97;;;;;;;;;;5054911;28;20391;-57
2023/05/25 07:16:34;;;;;;;5.00;3.72;;;;;;;;;;5054813;28;20502;-56
2023/05/25 07:19:00;;;;;;;5.10;3.83;;;;;;;;;;5054547;28;20048;-55
2023/05/25 07:21:26;;;;;;;8.63;4.30;;;;;;;;;;5054747;28;20383;-54
2023/05/25 07:23:52;;;;;;;6.78;4.38;;;;;;;;;;5054365;28;20110;-57
2023/05/25 07:26:21;;;;;;;6.18;3.85;;;;;;;;;;5055226;28;20435;-55
2023/05/25 07:28:47;;;;;;;5.38;3.67;;;;;;;;;;5054580;28;20103;-57
2023/05/25 07:31:13;;;;;;;9.18;4.50;;;;;;;;;;5054621;28;20059;-57
2023/05/25 07:33:39;;;;;;;7.45;4.43;;;;;;;;;;5054256;28;20066;-56
2023/05/25 07:36:05;;;;;;;5.35;4.18;;;;;;;;;;5055099;28;20116;-56
2023/05/25 07:38:31;;;;;;;10.35;5.20;;;;;;;;;;5054592;28;20363;-55
2023/05/25 07:40:57;;;;;;;7.20;5.18;;;;;;;;;;5053324;28;20027;-56
2023/05/25 07:43:23;;;;;;;6.32;3.83;;;;;;;;;;5052982;28;20107;-57
2023/05/25 07:45:49;;;;;;;6.25;4.03;;;;;;;;;;5053246;28;20033;-54
2023/05/25 07:48:15;;;;;;;8.80;4.15;;;;;;;;;;5054201;28;20032;-55
2023/05/25 07:50:41;;;;;;;8.57;5.10;;;;;;;;;;5053909;28;20103;-55
2023/05/25 07:53:07;;;;;;;6.18;4.95;;;;;;;;;;5054242;28;20021;-56
2023/05/25 07:55:33;;;;;;;5.30;4.68;;;;;;;;;;5053953;28;20047;-56
2023/05/25 07:57:59;;;;;;;10.18;4.75;;;;;;;;;;5053731;28;20028;-57
2023/05/25 08:00:25;;;;;;;9.85;4.95;;;;;;;;;;5053806;28;20386;-56
2023/05/25 08:02:51;;;;;;;9.57;4.25;;;;;;;;;;5054319;28;20116;-56
2023/05/25 08:05:17;;;;;;;6.35;4.90;;;;;;;;;;5053456;28;20043;-55
2023/05/25 08:07:45;;;;;;;7.65;4.30;;;;;;;;;;5053887;28;20031;-55
2023/05/25 08:10:11;;;;;;;6.22;4.35;;;;;;;;;;5053763;28;20031;-56
2023/05/25 08:12:37;;;;;;;8.30;6.30;;;;;;;;;;5054291;28;20108;-55
2023/05/25 08:15:03;;;;;;;6.72;4.25;;;;;;;;;;5053777;28;20084;-57
2023/05/25 08:17:29;;;;;;;6.53;4.95;;;;;;;;;;5053604;28;20424;-57
2023/05/25 08:19:55;;;;;;;8.93;4.53;;;;;;;;;;5053470;28;20032;-55
2023/05/25 08:22:21;;;;;;;8.82;4.40;;;;;;;;;;5053543;28;20079;-54
2023/05/25 08:24:47;;;;;;;11.02;4.63;;;;;;;;;;5053168;28;20037;-56
2023/05/25 08:27:13;;;;;;;5.32;4.03;;;;;;;;;;5054095;28;20036;-55
2023/05/25 08:29:39;;;;;;;5.30;4.30;;;;;;;;;;5053522;28;20038;-56
2023/05/25 08:32:05;;;;;;;5.57;4.30;;;;;;;;;;5053772;28;20370;-59
2023/05/25 08:34:31;;;;;;;9.10;5.20;;;;;;;;;;5054052;28;20036;-58
2023/05/25 08:36:57;;;;;;;7.97;4.88;;;;;;;;;;5053520;28;20029;-59
2023/05/25 08:39:23;;;;;;;5.35;3.80;;;;;;;;;;5053773;28;20029;-59
2023/05/25 08:41:50;;;;;;;7.57;5.00;;;;;;;;;;5054023;28;20369;-59
2023/05/25 08:44:16;;;;;;;5.80;4.55;;;;;;;;;;5053391;28;20394;-58
2023/05/25 08:46:42;;;;;;;9.52;4.60;;;;;;;;;;5053584;28;20035;-58
2023/05/25 08:49:12;;;;;;;5.13;4.03;;;;;;;;;;5053453;28;20109;-59
2023/05/25 08:51:41;;;;;;;5.00;4.13;;;;;;;;;;5053495;28;20060;-59
2023/05/25 08:54:08;;;;;;;9.48;4.75;;;;;;;;;;5053860;28;20122;-59
2023/05/25 08:56:38;;;;;;;5.53;4.45;;;;;;;;;;5053524;28;20108;-59
2023/05/25 08:59:20;;;;;;;6.13;5.10;;;;;;;;;;5054238;28;20087;-59
2023/05/25 09:01:50;;;;;;;6.13;4.82;;;;;;;;;;5057179;28;20449;-59
2023/05/25 09:04:18;;;;;;;8.25;4.97;;;;;;;;;;5057048;28;20072;-59
2023/05/25 09:06:46;;;;;;;7.07;4.53;;;;;;;;;;5057838;28;20065;-59
2023/05/25 09:09:12;;;;;;;8.52;4.85;;;;;;;;;;5057550;28;20028;-59
2023/05/25 09:11:39;;;;;;;8.43;4.32;;;;;;;;;;5056843;28;20094;-59
2023/05/25 09:14:06;;;;;;;8.05;4.60;;;;;;;;;;5056651;28;20390;-58
2023/05/25 09:16:33;;;;;;;9.35;4.72;;;;;;;;;;5057458;28;20126;-58
2023/05/25 09:18:59;;;;;;;8.65;4.45;;;;;;;;;;5057315;28;20044;-59
2023/05/25 09:21:25;;;;;;;8.13;5.35;;;;;;;;;;5056863;28;20029;-59
2023/05/25 09:23:52;;;;;;;5.85;4.75;;;;;;;;;;5056718;28;20104;-59
2023/05/25 09:26:18;;;;;;;9.27;5.15;;;;;;;;;;5057063;28;20095;-59
2023/05/25 09:28:45;;;;;;;7.63;5.43;;;;;;;;;;5056585;28;20025;-59
2023/05/25 09:31:12;;;;;;;10.13;6.10;;;;;;;;;;5056539;28;20037;-58
2023/05/25 09:33:41;;;;;;;10.85;4.70;;;;;;;;;;5056867;28;20024;-58
2023/05/25 09:36:08;;;;;;;7.28;5.57;;;;;;;;;;5057142;28;20032;-58
2023/05/25 09:38:35;;;;;;;8.43;5.03;;;;;;;;;;5056979;28;20111;-58
2023/05/25 09:41:01;;;;;;;7.40;5.18;;;;;;;;;;5057030;28;20029;-58
2023/05/25 09:43:27;;;;;;;6.57;4.72;;;;;;;;;;5056564;28;20048;-59
2023/05/25 09:45:53;;;;;;;8.07;5.22;;;;;;;;;;5056539;28;20064;-59
2023/05/25 09:48:20;;;;;;;7.63;5.50;;;;;;;;;;5057085;28;20035;-59
2023/05/25 09:50:46;;;;;;;7.60;5.18;;;;;;;;;;5056226;28;20053;-59
2023/05/25 09:53:12;;;;;;;8.80;5.57;;;;;;;;;;5056270;28;20033;-59
2023/05/25 09:55:38;;;;;;;8.18;4.63;;;;;;;;;;5056186;28;20029;-59
2023/05/25 09:58:06;;;;;;;5.65;4.45;;;;;;;;;;5056294;28;20032;-59
2023/05/25 10:00:31;;;;;;;7.97;4.90;;;;;;;;;;5056042;28;20033;-59
2023/05/25 10:02:57;;;;;;;6.78;4.78;;;;;;;;;;5056043;28;20021;-59
2023/05/25 10:05:23;;;;;;;6.75;4.45;;;;;;;;;;5054628;28;20021;-59
2023/05/25 10:07:50;;;;;;;6.68;4.97;;;;;;;;;;5055952;28;20104;-59
2023/05/25 10:10:16;;;;;;;6.10;4.65;;;;;;;;;;5056093;28;20107;-58
2023/05/25 10:12:42;;;;;;;9.20;4.78;;;;;;;;;;5055636;28;20020;-59
2023/05/25 10:15:10;;;;;;;6.22;4.07;;;;;;;;;;5056479;28;20386;-59
2023/05/25 10:17:41;;;;;;;5.65;4.15;;;;;;;;;;5055663;28;20429;-59
2023/05/25 10:20:07;;;;;;;8.15;4.95;;;;;;;;;;5055823;28;20370;-59
2023/05/25 10:22:33;;;;;;;8.65;5.18;;;;;;;;;;5055565;28;20115;-59
2023/05/25 10:25:07;;;;;;;6.90;4.18;;;;;;;;;;5055817;28;20064;-59
2023/05/25 10:27:39;;;;;;;7.90;5.78;;;;;;;;;;5055936;28;20031;-58
2023/05/25 10:30:06;;;;;;;10.45;5.95;;;;;;;;;;5056046;28;20021;-58
2023/05/25 10:32:32;;;;;;;8.15;4.03;;;;;;;;;;5055424;28;20086;-58
2023/05/25 10:34:58;;;;;;;8.57;4.30;;;;;;;;;;5055959;28;20049;-58
2023/05/25 10:37:27;;;;;;;6.35;4.65;;;;;;;;;;5056050;28;20470;-58
2023/05/25 10:39:53;;;;;;;6.35;4.50;;;;;;;;;;5055316;28;20037;-58
2023/05/25 10:42:20;;;;;;;5.63;4.25;;;;;;;;;;5055109;28;20073;-58
2023/05/25 10:44:46;;;;;;;6.70;4.45;;;;;;;;;;5054940;28;20040;-58
2023/05/25 10:47:12;;;;;;;6.40;4.38;;;;;;;;;;5055615;28;20029;-58
2023/05/25 10:49:56;;;;;;;7.38;4.15;;;;;;;;;;5055631;28;20021;-59
2023/05/25 10:52:29;;;;;;;7.38;3.85;;;;;;;;;;5055358;28;20017;-58
2023/05/25 10:54:56;;;;;;;9.38;4.05;;;;;;;;;;5055020;28;20021;-58
2023/05/25 10:57:23;;;;;;;5.57;3.90;;;;;;;;;;5055513;28;20379;-58
2023/05/25 10:59:50;;;;;;;7.43;4.05;;;;;;;;;;5055789;28;20108;-58
2023/05/25 11:02:16;;;;;;;5.60;4.05;;;;;;;;;;5054898;28;20029;-58
2023/05/25 11:04:43;;;;;;;5.93;3.55;;;;;;;;;;5055596;28;20035;-58
2023/05/25 11:07:15;;;;;;;4.75;3.65;;;;;;;;;;5055002;28;20036;-59
2023/05/25 11:09:44;;;;;;;5.05;4.00;;;;;;;;;;5055264;28;20439;-59
2023/05/25 11:12:20;;;;;;;5.38;4.00;;;;;;;;;;5055003;28;20021;-58
2023/05/25 11:15:06;;;;;;;5.07;3.47;;;;;;;;;;5054737;28;20053;-59
2023/05/25 11:17:35;;;;;;;5.40;4.15;;;;;;;;;;5055120;28;20017;-59
2023/05/25 11:20:05;;;;;;;6.07;3.75;;;;;;;;;;5054239;28;20536;-58
2023/05/25 11:22:31;;;;;;;6.38;3.65;;;;;;;;;;5054213;28;20066;-59
2023/05/25 11:24:58;;;;;;;5.53;4.15;;;;;;;;;;5054576;28;20040;-58
2023/05/25 11:27:28;;;;;;;6.50;4.43;;;;;;;;;;5054450;28;20025;-58
2023/05/25 11:29:58;;;;;;;8.73;4.28;;;;;;;;;;5054482;28;20024;-58
2023/05/25 11:32:25;;;;;;;5.75;4.07;;;;;;;;;;5054695;28;20150;-58
2023/05/25 11:34:57;;;;;;;5.88;4.32;;;;;;;;;;5054364;28;20036;-58
2023/05/25 11:37:30;;;;;;;6.80;3.83;;;;;;;;;;5053883;28;20036;-58
2023/05/25 11:39:56;;;;;;;4.88;3.13;;;;;;;;;;5054551;28;20032;-58
2023/05/25 11:42:22;;;;;;;6.22;4.18;;;;;;;;;;5054464;28;20021;-59
2023/05/25 11:44:48;;;;;;;5.32;3.80;;;;;;;;;;5054151;28;20459;-58
2023/05/25 11:47:17;;;;;;;5.75;4.93;;;;;;;;;;5054511;28;20032;-58
2023/05/25 11:49:48;;;;;;;7.95;6.35;;;;;;;;;;5053913;28;20383;-58
2023/05/25 11:52:15;;;;;;;6.45;3.90;;;;;;;;;;5054008;28;20116;-58
2023/05/25 11:54:41;;;;;;;4.53;3.38;;;;;;;;;;5053981;28;20027;-58
2023/05/25 11:57:14;;;;;;;6.13;3.67;;;;;;;;;;5054242;28;20025;-58
2023/05/25 11:59:40;;;;;;;5.93;3.47;;;;;;;;;;5053947;28;20362;-58
2023/05/25 12:02:06;;;;;;;5.25;4.00;;;;;;;;;;5053943;28;20025;-58
2023/05/25 12:04:33;;;;;;;6.35;4.07;;;;;;;;;;5053642;28;20385;-58
2023/05/25 12:07:02;;;;;;;6.07;3.75;;;;;;;;;;5054582;28;20021;-58
2023/05/25 12:09:28;;;;;;;4.38;3.58;;;;;;;;;;5054086;28;20021;-58
2023/05/25 12:11:54;;;;;;;5.40;3.63;;;;;;;;;;5054450;28;20029;-58
2023/05/25 12:14:21;;;;;;;8.07;3.78;;;;;;;;;;5053747;28;20045;-58
2023/05/25 12:16:47;;;;;;;8.05;3.78;;;;;;;;;;5054449;28;20074;-58
2023/05/25 12:19:13;;;;;;;4.80;3.80;;;;;;;;;;5053883;28;20025;-58
2023/05/25 12:21:40;;;;;;;7.40;4.07;;;;;;;;;;5053455;28;20032;-58
2023/05/25 12:24:07;;;;;;;4.63;3.40;;;;;;;;;;5053471;28;20041;-58
2023/05/25 12:26:33;;;;;;;5.30;3.10;;;;;;;;;;5054099;28;20020;-58
2023/05/25 12:29:03;;;;;;;4.40;3.55;;;;;;;;;;5054221;28;20017;-58
2023/05/25 12:31:31;;;;;;;4.88;3.45;;;;;;;;;;5053603;28;20028;-58
2023/05/25 12:34:16;;;;;;;4.10;3.70;;;;;;;;;;5055974;28;20021;-59
2023/05/25 12:36:45;;;;;;;5.78;3.40;;;;;;;;;;5057718;28;20057;-59
2023/05/25 12:39:11;;;;;;;5.20;4.25;;;;;;;;;;5058081;28;20027;-59
2023/05/25 12:41:44;;;;;;;5.70;3.50;;;;;;;;;;5057374;28;20025;-61
2023/05/25 12:44:26;;;;;;;5.68;3.72;;;;;;;;;;5057613;28;20079;-59
2023/05/25 12:46:53;;;;;;;5.78;3.72;;;;;;;;;;5057820;28;20107;-59
2023/05/25 12:49:30;;;;;;;6.47;3.95;;;;;;;;;;5057285;28;20029;-58
2023/05/25 12:51:56;;;;;;;5.70;4.13;;;;;;;;;;5056954;28;20080;-59
2023/05/25 12:54:35;;;;;;;5.38;3.63;;;;;;;;;;5057101;28;20029;-59
2023/05/25 12:57:06;;;;;;;6.38;4.45;;;;;;;;;;5057629;28;20021;-59
2023/05/25 12:59:33;;;;;;;5.72;4.03;;;;;;;;;;5057308;28;20055;-59
2023/05/25 13:01:59;;;;;;;5.55;3.80;;;;;;;;;;5057102;28;20061;-59
2023/05/25 13:04:25;;;;;;;7.15;3.63;;;;;;;;;;5057168;28;20028;-58
2023/05/25 13:06:51;;;;;;;5.38;4.30;;;;;;;;;;5057845;28;20035;-59
2023/05/25 13:09:17;;;;;;;5.90;4.18;;;;;;;;;;5056624;28;20395;-59
2023/05/25 13:11:43;;;;;;;6.18;3.95;;;;;;;;;;5057196;28;20017;-59
2023/05/25 13:14:10;;;;;;;6.63;4.70;;;;;;;;;;5056280;28;20522;-59
2023/05/25 13:16:36;;;;;;;6.38;4.75;;;;;;;;;;5056811;28;20021;-59
2023/05/25 13:19:02;;;;;;;7.50;3.80;;;;;;;;;;5056811;28;20021;-59
2023/05/25 13:21:28;;;;;;;4.80;3.90;;;;;;;;;;5056398;28;20017;-59
2023/05/25 13:23:54;;;;;;;6.32;4.57;;;;;;;;;;5056414;28;20040;-59
2023/05/25 13:26:20;;;;;;;7.15;4.70;;;;;;;;;;5057203;28;20017;-59
2023/05/25 13:28:46;;;;;;;7.80;4.15;;;;;;;;;;5056600;28;20033;-59
2023/05/25 13:31:12;;;;;;;9.43;4.38;;;;;;;;;;5056653;28;20028;-59
2023/05/25 13:33:38;;;;;;;6.97;4.35;;;;;;;;;;5056864;28;20032;-59
2023/05/25 13:36:07;;;;;;;6.28;4.18;;;;;;;;;;5056927;28;20114;-59
2023/05/25 13:38:33;;;;;;;7.65;4.10;;;;;;;;;;5056979;28;20075;-59
2023/05/25 13:40:59;;;;;;;6.57;4.25;;;;;;;;;;5056560;28;20042;-59
2023/05/25 13:43:25;;;;;;;8.57;4.57;;;;;;;;;;5056374;28;20025;-59
2023/05/25 13:45:51;;;;;;;4.68;3.35;;;;;;;;;;5055606;28;20075;-59
2023/05/25 13:48:17;;;;;;;4.93;3.75;;;;;;;;;;5056264;28;20074;-59
2023/05/25 13:50:43;;;;;;;5.97;4.80;;;;;;;;;;5056579;28;20021;-59
2023/05/25 13:53:13;;;;;;;7.18;4.45;;;;;;;;;;5056677;28;20402;-59
2023/05/25 13:55:39;;;;;;;5.00;4.20;;;;;;;;;;5056164;28;20025;-59
2023/05/25 13:58:05;;;;;;;6.55;4.22;;;;;;;;;;5056101;28;20104;-59
2023/05/25 14:00:32;;;;;;;7.28;4.43;;;;;;;;;;5055804;28;20475;-59
2023/05/25 14:02:58;;;;;;;7.47;4.20;;;;;;;;;;5056671;28;20032;-59
2023/05/25 14:05:24;;;;;;;6.60;3.92;;;;;;;;;;5055937;28;20463;-59
2023/05/25 14:07:50;;;;;;;6.60;4.35;;;;;;;;;;5055856;28;20017;-59
2023/05/25 14:10:17;;;;;;;6.40;4.38;;;;;;;;;;5055699;28;20029;-59
2023/05/25 14:12:43;;;;;;;8.05;4.45;;;;;;;;;;5055680;28;20108;-59
2023/05/25 14:15:09;;;;;;;5.05;4.20;;;;;;;;;;5056762;28;20431;-59
2023/05/25 14:17:35;;;;;;;5.22;4.07;;;;;;;;;;5056002;28;20036;-59
2023/05/25 14:20:05;;;;;;;8.55;4.70;;;;;;;;;;5055745;28;20147;-59
2023/05/25 14:22:31;;;;;;;6.38;4.05;;;;;;;;;;5056223;28;20024;-59
2023/05/25 14:24:57;;;;;;;8.38;4.03;;;;;;;;;;5055448;28;20047;-59
2023/05/25 14:27:23;;;;;;;8.90;3.95;;;;;;;;;;5056412;28;20052;-59
2023/05/25 14:29:50;;;;;;;7.03;4.03;;;;;;;;;;5055843;28;20106;-59
2023/05/25 14:32:16;;;;;;;8.10;4.68;;;;;;;;;;5055808;28;20095;-59
2023/05/25 14:34:43;;;;;;;7.45;4.35;;;;;;;;;;5056098;28;20411;-59
2023/05/25 14:37:10;;;;;;;7.28;4.68;;;;;;;;;;5055879;28;20032;-59
2023/05/25 14:39:36;;;;;;;6.85;3.72;;;;;;;;;;5055871;28;20076;-59
2023/05/25 14:42:02;;;;;;;5.57;4.18;;;;;;;;;;5055268;28;20028;-58